Wednesday, April 23, 2014, 4:25 AM EDT

KRDG, Reading Regional Airport

Location: Reading, PA, United States Lat: 40.367
Local Time: 4:25 AM EDT ( 8:25 GMT) Lon: -75.967
Time Zone: US/Eastern Elev: 344 ft

Show me the last for .
Show Decoded

2014-04-23 03:54 METAR KRDG 230754Z AUTO 29009KT 10SM BKN046 09/01 A2964 RMK AO2 SLP041 T00890006
                 =
2014-04-23 02:54 METAR KRDG 230654Z 29010KT 10SM FEW048 09/01 A2963 RMK AO2 SLP039 T00890006 =
2014-04-23 01:54 METAR KRDG 230554Z 29009G15KT 10SM CLR 09/01 A2963 RMK AO2 PK WND 30026/0527
                 SLP038 60000 T00940006 10144 20094 53015 =
2014-04-23 00:54 METAR KRDG 230454Z 28011G25KT 10SM CLR 11/02 A2962 RMK AO2 SLP033 T01110022
                 402000100 =
2014-04-22 23:54 METAR KRDG 230354Z 27008KT 10SM CLR 12/07 A2959 RMK AO2 SLP025 T01220072 =
2014-04-22 22:54 METAR KRDG 230254Z 28010KT 10SM CLR 13/09 A2958 RMK AO2 SLP022 60000 T01280089
                 51015 =
2014-04-22 21:54 METAR KRDG 230154Z 29003KT 10SM CLR 13/09 A2958 RMK AO2 SLP020 T01280089 =
2014-04-22 20:54 METAR KRDG 230054Z 25006KT 10SM CLR 13/09 A2958 RMK AO2 RAE18 SLP020 P0000
                 T01330089 =
2014-04-22 19:54 METAR KRDG 222354Z 13008KT 10SM -RA FEW060 BKN070 OVC110 14/10 A2954 RMK AO2
                 WSHFT 2300 RAB2256 TSB2258E18 PRESFR SLP008 P0006 60009 T01390100 10183 20139
                 58011 =
2014-04-22 19:38 METAR KRDG 222338Z VRB03KT 10SM -RA BKN070 OVC085 14/09 A2957 RMK AO2 WSHFT 2300
                 LTG DSNT SE RAB2256 TSB2258E18 PRESFR P0006 T01440094 =
2014-04-22 19:18 METAR KRDG 222318Z 27012G21KT 9SM VCTS -RA FEW038 OVC065 16/11 A2959 RMK AO2
                 WSHFT 2300 LTG DSNT SE RAB2256 TSB2258E18 P0005 T01560106 =
2014-04-22 19:04 METAR KRDG 222304Z 26013G20KT 8SM TSRA FEW039 BKN055 OVC085 17/13 A2958 RMK AO2
                 LTG DSNT S AND SW RAB2256 TSB2258 P0002 T01720128 =
2014-04-22 18:54 METAR KRDG 222254Z 32008KT 10SM VCTS SCT037 SCT050 BKN075 18/13 A2958 RMK AO2
                 LTG DSNT NE AND SW AND W TSE54 SLP020 T01780128 =
2014-04-22 17:54 METAR KRDG 222154Z AUTO 00000KT 10SM FEW085 FEW110 18/13 A2955 RMK AO2 SLP011
                 T01830133 =
2014-04-22 16:54 METAR KRDG 222054Z 24004KT 9SM BKN090 17/13 A2957 RMK AO2 SLP019 60003 T01670128
                 58017 =
2014-04-22 15:54 METAR KRDG 221954Z 22009KT 7SM OVC080 16/12 A2959 =
2014-04-22 14:54 METAR KRDG 221854Z 27004KT 5SM -RA FEW039 BKN060 OVC080 16/12 A2962 RMK AO2
                 SLP034 P0003 T01560117 =
2014-04-22 13:54 METAR KRDG 221754Z 27006KT 10SM -RA FEW060 OVC080 18/09 A2962 RMK AO2 RAB08
                 SLP035 P0000 60000 T01830094 10200 20122 56014 =
2014-04-22 12:54 METAR KRDG 221654Z 22006KT 10SM FEW045 SCT090 BKN110 19/09 A2962 RMK AO2 SLP035
                 T01940089 =
2014-04-22 11:54 METAR KRDG 221554Z 18004KT 10SM CLR 19/08 A2964 RMK AO2 SLP040 T01940083 =
2014-04-22 10:54 METAR KRDG 221454Z 19004KT 10SM CLR 17/07 A2966 RMK AO2 SLP049 T01720072 58020 =
2014-04-22 09:54 METAR KRDG 221354Z 24005KT 10SM CLR 16/08 A2970 RMK AO2 SLP061 T01560083 =
2014-04-22 08:54 METAR KRDG 221254Z 20003KT 10SM OVC100 13/07 A2971 RMK AO2 SLP066 T01330072 =
2014-04-22 07:54 METAR KRDG 221154Z 18004KT 10SM CLR 12/07 A2972 RMK AO2 SLP069 T01220072 10122
                 20100 56014 =
2014-04-22 06:54 METAR KRDG 221054Z 17003KT 10SM CLR 11/06 A2974 RMK AO2 SLP074 T01110061 =
2014-04-22 05:54 METAR KRDG 220954Z 00000KT 10SM CLR 11/06 A2974 RMK AO2 SLP075 T01060056 =
2014-04-22 04:54 METAR KRDG 220854Z 17003KT 10SM CLR 11/05 A2976 RMK AO2 SLP082 T01110050 58020 =

Support USWX by starting your Amazon purchase here.